Ranshaw, Pennsylvania
Current Conditions -  °F | °C
As of 6:53 PM on Friday 24 Oct 2014 (Local Time) from KSEG Reporting Station
Clear Clear  
Wind Chill: 62°   Ceiling: Unl
Heat Index: 62°   Visibility: 10mi
Dew Point: 33°   Wind: 5mph
Humidity: 34%   Direction: 290°WNW
Pressure: 29.89"   Gusts: NA
Location:  40.7855°N, 76.5082°W
Report Text: KSEG 242253Z AUTO 29004KT 10SM CLR 17/01 A2989 RMK AO2 SLP120 T01670006
Loading
Personal Weather Stations






























Interactive Weather Map
Tropical Storm Tracking
New forecast layout! Learn more

10-Day Weather Forecast

Advertisements
Track Severe Weather on mobile